createdAt,value
2023-05-27T00:00:12.102Z,6.93
2023-05-27T00:05:34.451Z,6.94
2023-05-27T00:10:36.444Z,6.95
2023-05-27T00:15:41.901Z,6.96
2023-05-27T00:20:44.065Z,7.00
2023-05-27T00:25:47.841Z,7.06
2023-05-27T00:30:50.084Z,7.17
2023-05-27T00:35:52.038Z,7.26
2023-05-27T00:40:54.615Z,7.32
2023-05-27T00:45:56.969Z,7.33
2023-05-27T00:50:58.928Z,7.27
2023-05-27T00:56:01.722Z,7.19
2023-05-27T01:01:07.952Z,7.11
2023-05-27T01:06:29.046Z,7.05
2023-05-27T01:11:38.414Z,6.95
2023-05-27T01:16:45.315Z,6.81
2023-05-27T01:21:51.349Z,6.68
2023-05-27T01:26:54.044Z,6.55
2023-05-27T01:32:22.316Z,6.43
2023-05-27T01:37:26.476Z,6.32
2023-05-27T01:42:29.070Z,6.22
2023-05-27T01:47:32.001Z,6.12
2023-05-27T01:52:33.949Z,6.03
2023-05-27T01:57:35.835Z,5.93
2023-05-27T02:02:37.880Z,5.86
2023-05-27T02:07:40.304Z,5.80
2023-05-27T02:12:42.479Z,5.75
2023-05-27T02:17:46.764Z,5.68
2023-05-27T02:22:51.047Z,5.64
2023-05-27T02:27:53.033Z,5.62
2023-05-27T02:32:55.432Z,5.63
2023-05-27T02:37:57.407Z,5.66
2023-05-27T02:42:59.688Z,5.71
2023-05-27T02:48:02.112Z,5.77
2023-05-27T02:53:04.147Z,5.87
2023-05-27T02:58:06.032Z,5.98
2023-05-27T03:03:08.860Z,6.13
2023-05-27T03:08:11.209Z,6.30
2023-05-27T03:13:13.088Z,6.47
2023-05-27T03:18:14.862Z,6.66
2023-05-27T03:23:17.047Z,6.90
2023-05-27T03:28:18.929Z,7.16
2023-05-27T03:33:20.647Z,7.50
2023-05-27T03:38:22.474Z,8.11
2023-05-27T03:43:24.556Z,9.01
2023-05-27T03:48:26.396Z,10.08
2023-05-27T03:53:28.718Z,11.31
2023-05-27T03:58:30.821Z,12.54
2023-05-27T04:03:33.122Z,13.60
2023-05-27T04:08:36.309Z,14.65
2023-05-27T04:13:37.967Z,15.72
2023-05-27T04:18:39.744Z,16.66
2023-05-27T04:23:42.337Z,17.62
2023-05-27T04:28:46.070Z,18.47
2023-05-27T04:33:48.141Z,19.27
2023-05-27T04:38:51.602Z,20.03
2023-05-27T04:43:53.744Z,20.77
2023-05-27T04:48:56.383Z,21.29
2023-05-27T04:53:58.207Z,21.56
2023-05-27T04:59:00.712Z,21.92
2023-05-27T05:04:13.047Z,22.37
2023-05-27T05:09:15.145Z,22.99
2023-05-27T05:14:16.872Z,23.68
2023-05-27T05:19:19.165Z,24.00
2023-05-27T05:24:21.043Z,24.25
2023-05-27T05:29:23.129Z,24.64
2023-05-27T05:34:25.411Z,24.93
2023-05-27T05:39:27.386Z,25.18
2023-05-27T05:44:29.626Z,25.72
2023-05-27T05:49:31.681Z,25.34
2023-05-27T05:54:33.636Z,25.14
2023-05-27T05:59:35.717Z,25.28
2023-05-27T06:04:37.650Z,25.09
2023-05-27T06:09:40.085Z,25.22
2023-05-27T06:14:42.477Z,25.43
2023-05-27T06:19:44.345Z,25.70
2023-05-27T06:24:46.436Z,26.56
2023-05-27T06:29:48.719Z,27.15
2023-05-27T06:34:50.487Z,27.26
2023-05-27T06:39:52.925Z,27.79
2023-05-27T06:44:54.969Z,28.77
2023-05-27T06:49:56.947Z,29.35
2023-05-27T06:54:58.923Z,29.31
2023-05-27T07:00:00.799Z,29.08
2023-05-27T07:05:03.313Z,29.00
2023-05-27T07:10:09.129Z,-33.38
2023-05-27T07:15:11.545Z,30.77
2023-05-27T07:20:13.795Z,31.32
2023-05-27T07:25:16.222Z,31.27
2023-05-27T07:30:18.403Z,30.77
2023-05-27T07:35:20.797Z,30.89
2023-05-27T07:40:22.894Z,31.06
2023-05-27T07:45:25.218Z,31.32
2023-05-27T07:50:28.685Z,32.02
2023-05-27T07:55:30.577Z,32.33
2023-05-27T08:00:33.061Z,32.31
2023-05-27T08:05:35.147Z,32.93
2023-05-27T08:10:37.523Z,33.33
2023-05-27T08:15:39.500Z,33.49
2023-05-27T08:20:41.598Z,33.27
2023-05-27T08:25:44.181Z,33.08
2023-05-27T08:30:47.397Z,32.81
2023-05-27T08:35:49.681Z,33.36
2023-05-27T08:40:54.810Z,33.51
2023-05-27T08:45:57.125Z,33.14
2023-05-27T08:51:00.218Z,33.23
2023-05-27T08:56:03.631Z,32.89
2023-05-27T09:01:05.816Z,32.88
2023-05-27T09:06:07.790Z,32.80
2023-05-27T09:11:29.793Z,32.54
2023-05-27T09:16:31.729Z,32.09
2023-05-27T09:21:34.002Z,32.21
2023-05-27T09:26:36.185Z,32.37
2023-05-27T09:31:42.099Z,32.30
2023-05-27T09:36:51.822Z,32.46
2023-05-27T09:41:56.103Z,32.56
2023-05-27T09:47:01.437Z,32.15
2023-05-27T09:52:07.201Z,31.91
2023-05-27T09:57:10.710Z,31.68
2023-05-27T10:02:18.711Z,31.71
2023-05-27T10:07:30.801Z,30.81
2023-05-27T10:12:36.629Z,28.56
2023-05-27T10:17:59.937Z,26.47
2023-05-27T10:23:19.497Z,25.21
2023-05-27T10:28:39.984Z,24.48
2023-05-27T10:33:48.167Z,23.58
2023-05-27T10:39:00.157Z,23.32
2023-05-27T10:44:04.073Z,23.28
2023-05-27T10:49:15.674Z,22.76
2023-05-27T10:54:29.186Z,22.23
2023-05-27T10:59:40.505Z,22.19
2023-05-27T11:04:42.893Z,22.06
2023-05-27T11:09:49.068Z,21.83
2023-05-27T11:14:54.025Z,21.48
2023-05-27T11:19:56.584Z,21.28
2023-05-27T11:25:03.912Z,21.13
2023-05-27T11:30:13.914Z,21.14
2023-05-27T11:35:19.605Z,21.33
2023-05-27T11:40:22.041Z,21.40
2023-05-27T11:45:24.338Z,21.37
2023-05-27T11:50:28.798Z,21.50
2023-05-27T11:55:31.158Z,21.86
2023-05-27T12:00:34.744Z,21.84
2023-05-27T12:05:36.907Z,21.55
2023-05-27T12:10:39.244Z,21.42
2023-05-27T12:15:41.248Z,21.46
2023-05-27T12:20:45.787Z,21.48
2023-05-27T12:25:48.278Z,21.44
2023-05-27T12:30:50.546Z,21.47
2023-05-27T12:35:53.272Z,21.51
2023-05-27T12:40:58.898Z,21.70
2023-05-27T12:46:01.187Z,21.61
2023-05-27T12:51:03.879Z,21.48
2023-05-27T12:56:06.472Z,21.36
2023-05-27T13:01:08.551Z,21.21
2023-05-27T13:06:10.632Z,20.97
2023-05-27T13:11:12.927Z,20.75
2023-05-27T13:16:14.908Z,20.65
2023-05-27T13:21:16.919Z,20.52
2023-05-27T13:26:19.490Z,20.55
2023-05-27T13:31:21.663Z,20.66
2023-05-27T13:36:23.896Z,20.60
2023-05-27T13:41:26.128Z,20.50
2023-05-27T13:46:28.162Z,20.38
2023-05-27T13:51:31.425Z,20.25
2023-05-27T13:56:33.911Z,20.21
2023-05-27T14:01:36.918Z,20.24
2023-05-27T14:06:39.006Z,20.20
2023-05-27T14:11:40.977Z,20.18
2023-05-27T14:16:43.089Z,20.21
2023-05-27T14:21:45.968Z,20.27
2023-05-27T14:26:48.556Z,20.30
2023-05-27T14:31:51.299Z,20.35
2023-05-27T14:36:53.478Z,20.30
2023-05-27T14:41:56.250Z,20.26
2023-05-27T14:46:58.577Z,20.28
2023-05-27T14:52:01.140Z,20.17
2023-05-27T14:57:04.236Z,20.08
2023-05-27T15:02:06.308Z,20.02
2023-05-27T15:07:08.434Z,19.96
2023-05-27T15:12:10.356Z,19.86
2023-05-27T15:17:12.692Z,19.82
2023-05-27T15:22:15.856Z,19.79
2023-05-27T15:27:17.948Z,19.74
2023-05-27T15:32:20.241Z,19.78
2023-05-27T15:37:22.203Z,19.67
2023-05-27T15:42:26.137Z,19.58
2023-05-27T15:47:28.651Z,19.50
2023-05-27T15:52:31.430Z,19.45
2023-05-27T15:57:33.702Z,19.50
2023-05-27T16:02:35.750Z,19.51
2023-05-27T16:07:39.984Z,19.47
2023-05-27T16:12:42.723Z,19.36
2023-05-27T16:17:44.680Z,19.25
2023-05-27T16:22:46.682Z,19.13
2023-05-27T16:27:48.876Z,19.04
2023-05-27T16:32:53.255Z,18.96
2023-05-27T16:37:56.190Z,18.87
2023-05-27T16:42:58.494Z,18.83
2023-05-27T16:48:03.103Z,18.81
2023-05-27T16:53:05.213Z,18.76
2023-05-27T16:58:07.352Z,18.65
2023-05-27T17:03:10.515Z,18.54
2023-05-27T17:08:12.786Z,18.41
2023-05-27T17:13:16.197Z,18.29
2023-05-27T17:18:18.385Z,18.17
2023-05-27T17:23:20.569Z,18.00
2023-05-27T17:28:22.749Z,17.82
2023-05-27T17:33:25.867Z,17.62
2023-05-27T17:38:29.472Z,17.43
2023-05-27T17:43:32.179Z,17.27
2023-05-27T17:48:34.567Z,17.11
2023-05-27T17:53:38.073Z,16.97
2023-05-27T17:58:39.952Z,16.83
2023-05-27T18:03:42.493Z,16.68
2023-05-27T18:08:45.441Z,16.51
2023-05-27T18:13:47.528Z,16.32
2023-05-27T18:18:50.114Z,16.12
2023-05-27T18:23:52.430Z,15.91
2023-05-27T18:28:54.592Z,15.69
2023-05-27T18:33:58.202Z,15.50
2023-05-27T18:39:00.602Z,15.29
2023-05-27T18:44:03.922Z,15.05
2023-05-27T18:49:08.385Z,14.80
2023-05-27T18:54:11.780Z,14.56
2023-05-27T18:59:14.463Z,14.34
2023-05-27T19:04:19.353Z,14.14
2023-05-27T19:09:22.549Z,13.95
2023-05-27T19:14:26.767Z,13.79
2023-05-27T19:19:31.293Z,13.62
2023-05-27T19:24:33.583Z,13.43
2023-05-27T19:29:37.080Z,13.27
2023-05-27T19:34:40.704Z,13.10
2023-05-27T19:39:43.522Z,12.96
2023-05-27T19:44:48.064Z,12.84
2023-05-27T19:49:51.453Z,12.73
2023-05-27T19:54:54.157Z,12.62
2023-05-27T19:59:58.124Z,12.53
2023-05-27T20:05:00.924Z,12.42
2023-05-27T20:10:05.725Z,12.32
2023-05-27T20:15:10.255Z,12.23
2023-05-27T20:20:13.956Z,12.15
2023-05-27T20:25:16.719Z,12.09
2023-05-27T20:30:23.401Z,12.04
2023-05-27T20:35:26.371Z,11.95
2023-05-27T20:40:29.370Z,11.84
2023-05-27T20:45:32.107Z,11.73
2023-05-27T20:50:34.165Z,11.63
2023-05-27T20:55:36.744Z,11.55
2023-05-27T21:00:40.061Z,11.44
2023-05-27T21:05:43.803Z,11.31
2023-05-27T21:10:46.162Z,11.20
2023-05-27T21:15:48.446Z,11.10
2023-05-27T21:20:51.149Z,11.01
2023-05-27T21:25:53.445Z,10.90
2023-05-27T21:30:55.825Z,10.78
2023-05-27T21:35:58.639Z,10.66
2023-05-27T21:41:00.834Z,10.56
2023-05-27T21:46:02.897Z,10.44
2023-05-27T21:51:04.973Z,10.28
2023-05-27T21:56:06.951Z,10.11
2023-05-27T22:01:12.833Z,9.95
2023-05-27T22:06:15.357Z,9.80
2023-05-27T22:11:17.286Z,9.66
2023-05-27T22:16:20.867Z,9.52
2023-05-27T22:21:29.606Z,9.36
2023-05-27T22:26:32.451Z,9.23
2023-05-27T22:31:34.751Z,9.14
2023-05-27T22:36:36.809Z,9.03
2023-05-27T22:41:38.693Z,8.92
2023-05-27T22:46:40.794Z,8.82
2023-05-27T22:51:42.748Z,8.73
2023-05-27T22:56:44.621Z,8.65
2023-05-27T23:01:46.535Z,8.61
2023-05-27T23:06:48.580Z,8.55
2023-05-27T23:11:50.418Z,8.52
2023-05-27T23:16:55.616Z,8.50
2023-05-27T23:21:57.594Z,8.48
2023-05-27T23:26:59.378Z,8.45
2023-05-27T23:32:01.324Z,8.42
2023-05-27T23:37:03.182Z,8.37
2023-05-27T23:42:06.953Z,8.32
2023-05-27T23:47:09.955Z,8.27
2023-05-27T23:52:11.927Z,8.20
2023-05-27T23:57:14.419Z,8.14
